sensor_id;sensor_type;location;lat;lon;timestamp;pressure;altitude;pressure_sealevel;temperature;humidity
9187;BME280;7273;48.902;9.410;2023-04-19T00:00:39;98583.56;;;9.82;70.27
9187;BME280;7273;48.902;9.410;2023-04-19T00:03:06;98591.16;;;9.85;70.19
9187;BME280;7273;48.902;9.410;2023-04-19T00:05:32;98578.72;;;9.84;70.07
9187;BME280;7273;48.902;9.410;2023-04-19T00:07:58;98584.09;;;9.79;70.64
9187;BME280;7273;48.902;9.410;2023-04-19T00:10:24;98580.06;;;9.81;70.13
9187;BME280;7273;48.902;9.410;2023-04-19T00:12:51;98584.59;;;9.76;70.39
9187;BME280;7273;48.902;9.410;2023-04-19T00:15:17;98587.84;;;9.78;70.15
9187;BME280;7273;48.902;9.410;2023-04-19T00:17:43;98588.69;;;9.78;70.45
9187;BME280;7273;48.902;9.410;2023-04-19T00:20:09;98587.03;;;9.77;70.30
9187;BME280;7273;48.902;9.410;2023-04-19T00:22:39;98585.97;;;9.78;70.07
9187;BME280;7273;48.902;9.410;2023-04-19T00:25:05;98577.31;;;9.76;70.18
9187;BME280;7273;48.902;9.410;2023-04-19T00:27:31;98573.25;;;9.74;70.30
9187;BME280;7273;48.902;9.410;2023-04-19T00:29:57;98571.03;;;9.71;70.16
9187;BME280;7273;48.902;9.410;2023-04-19T00:32:23;98577.84;;;9.73;70.52
9187;BME280;7273;48.902;9.410;2023-04-19T00:34:48;98571.34;;;9.74;70.51
9187;BME280;7273;48.902;9.410;2023-04-19T00:37:14;98576.44;;;9.71;70.65
9187;BME280;7273;48.902;9.410;2023-04-19T00:39:39;98572.69;;;9.72;70.55
9187;BME280;7273;48.902;9.410;2023-04-19T00:42:05;98568.66;;;9.74;70.29
9187;BME280;7273;48.902;9.410;2023-04-19T00:44:31;98571.59;;;9.73;70.46
9187;BME280;7273;48.902;9.410;2023-04-19T00:46:56;98567.53;;;9.70;70.80
9187;BME280;7273;48.902;9.410;2023-04-19T00:49:23;98568.34;;;9.71;70.74
9187;BME280;7273;48.902;9.410;2023-04-19T00:51:52;98560.00;;;9.72;70.33
9187;BME280;7273;48.902;9.410;2023-04-19T00:54:18;98570.25;;;9.70;70.17
9187;BME280;7273;48.902;9.410;2023-04-19T00:56:44;98567.28;;;9.72;70.21
9187;BME280;7273;48.902;9.410;2023-04-19T00:59:11;98562.94;;;9.66;70.81
9187;BME280;7273;48.902;9.410;2023-04-19T01:01:37;98562.38;;;9.64;70.64
9187;BME280;7273;48.902;9.410;2023-04-19T01:04:04;98562.38;;;9.64;70.77
9187;BME280;7273;48.902;9.410;2023-04-19T01:06:30;98555.38;;;9.68;70.31
9187;BME280;7273;48.902;9.410;2023-04-19T01:08:57;98561.06;;;9.71;70.43
9187;BME280;7273;48.902;9.410;2023-04-19T01:11:23;98555.69;;;9.76;70.32
9187;BME280;7273;48.902;9.410;2023-04-19T01:13:49;98561.63;;;9.73;70.30
9187;BME280;7273;48.902;9.410;2023-04-19T01:16:15;98548.38;;;9.72;70.43
9187;BME280;7273;48.902;9.410;2023-04-19T01:18:41;98549.22;;;9.72;70.53
9187;BME280;7273;48.902;9.410;2023-04-19T01:21:07;98550.22;;;9.66;70.59
9187;BME280;7273;48.902;9.410;2023-04-19T01:23:36;98546.16;;;9.64;70.91
9187;BME280;7273;48.902;9.410;2023-04-19T01:26:03;98545.13;;;9.70;70.86
9187;BME280;7273;48.902;9.410;2023-04-19T01:28:29;98541.91;;;9.73;70.79
9187;BME280;7273;48.902;9.410;2023-04-19T01:30:55;98541.84;;;9.68;70.52
9187;BME280;7273;48.902;9.410;2023-04-19T01:33:20;98533.72;;;9.63;70.98
9187;BME280;7273;48.902;9.410;2023-04-19T01:35:46;98531.06;;;9.68;70.84
9187;BME280;7273;48.902;9.410;2023-04-19T01:38:12;98531.63;;;9.70;70.74
9187;BME280;7273;48.902;9.410;2023-04-19T01:40:38;98529.97;;;9.64;70.77
9187;BME280;7273;48.902;9.410;2023-04-19T01:43:03;98527.84;;;9.71;70.57
9187;BME280;7273;48.902;9.410;2023-04-19T01:45:28;98524.88;;;9.67;70.91
9187;BME280;7273;48.902;9.410;2023-04-19T01:47:54;98531.56;;;9.65;70.98
9187;BME280;7273;48.902;9.410;2023-04-19T01:50:20;98529.91;;;9.59;70.83
9187;BME280;7273;48.902;9.410;2023-04-19T01:52:45;98523.47;;;9.65;70.69
9187;BME280;7273;48.902;9.410;2023-04-19T01:55:11;98518.06;;;9.65;70.91
9187;BME280;7273;48.902;9.410;2023-04-19T01:57:36;98519.69;;;9.61;70.78
9187;BME280;7273;48.902;9.410;2023-04-19T02:00:02;98516.94;;;9.56;70.87
9187;BME280;7273;48.902;9.410;2023-04-19T02:02:28;98513.97;;;9.57;70.81
9187;BME280;7273;48.902;9.410;2023-04-19T02:04:53;98506.72;;;9.63;70.73
9187;BME280;7273;48.902;9.410;2023-04-19T02:07:18;98510.19;;;9.58;71.07
9187;BME280;7273;48.902;9.410;2023-04-19T02:09:44;98502.13;;;9.63;71.19
9187;BME280;7273;48.902;9.410;2023-04-19T02:12:09;98499.69;;;9.62;70.97
9187;BME280;7273;48.902;9.410;2023-04-19T02:14:35;98497.25;;;9.60;70.90
9187;BME280;7273;48.902;9.410;2023-04-19T02:17:00;98500.00;;;9.65;71.21
9187;BME280;7273;48.902;9.410;2023-04-19T02:19:25;98496.22;;;9.66;71.30
9187;BME280;7273;48.902;9.410;2023-04-19T02:21:51;98489.97;;;9.61;70.98
9187;BME280;7273;48.902;9.410;2023-04-19T02:24:17;98495.91;;;9.63;71.11
9187;BME280;7273;48.902;9.410;2023-04-19T02:26:43;98488.38;;;9.65;70.88
9187;BME280;7273;48.902;9.410;2023-04-19T02:29:08;98491.63;;;9.67;71.19
9187;BME280;7273;48.902;9.410;2023-04-19T02:31:35;98489.75;;;9.67;71.07
9187;BME280;7273;48.902;9.410;2023-04-19T02:34:00;98490.53;;;9.68;71.03
9187;BME280;7273;48.902;9.410;2023-04-19T02:36:26;98489.41;;;9.59;71.39
9187;BME280;7273;48.902;9.410;2023-04-19T02:38:51;98486.97;;;9.57;71.33
9187;BME280;7273;48.902;9.410;2023-04-19T02:41:16;98484.06;;;9.64;71.17
9187;BME280;7273;48.902;9.410;2023-04-19T02:43:42;98488.91;;;9.62;71.09
9187;BME280;7273;48.902;9.410;2023-04-19T02:46:08;98470.81;;;9.62;70.87
9187;BME280;7273;48.902;9.410;2023-04-19T02:48:34;98481.31;;;9.59;71.06
9187;BME280;7273;48.902;9.410;2023-04-19T02:50:59;98477.28;;;9.61;71.06
9187;BME280;7273;48.902;9.410;2023-04-19T02:53:24;98481.31;;;9.59;71.03
9187;BME280;7273;48.902;9.410;2023-04-19T02:55:50;98474.84;;;9.60;70.73
9187;BME280;7273;48.902;9.410;2023-04-19T02:58:15;98478.84;;;9.52;71.35
9187;BME280;7273;48.902;9.410;2023-04-19T03:00:41;98479.63;;;9.52;71.31
9187;BME280;7273;48.902;9.410;2023-04-19T03:03:06;98480.41;;;9.48;71.10
9187;BME280;7273;48.902;9.410;2023-04-19T03:05:33;98476.09;;;9.47;71.40
9187;BME280;7273;48.902;9.410;2023-04-19T03:07:58;98470.19;;;9.50;71.09
9187;BME280;7273;48.902;9.410;2023-04-19T03:10:24;98469.09;;;9.51;71.15
9187;BME280;7273;48.902;9.410;2023-04-19T03:12:50;98471.00;;;9.50;71.37
9187;BME280;7273;48.902;9.410;2023-04-19T03:15:15;98469.06;;;9.41;71.21
9187;BME280;7273;48.902;9.410;2023-04-19T03:17:41;98470.94;;;9.40;71.45
9187;BME280;7273;48.902;9.410;2023-04-19T03:20:07;98469.28;;;9.39;71.11
9187;BME280;7273;48.902;9.410;2023-04-19T03:22:36;98473.59;;;9.35;71.55
9187;BME280;7273;48.902;9.410;2023-04-19T03:25:02;98473.31;;;9.37;71.45
9187;BME280;7273;48.902;9.410;2023-04-19T03:27:28;98464.41;;;9.36;71.45
9187;BME280;7273;48.902;9.410;2023-04-19T03:29:54;98470.28;;;9.28;71.90
9187;BME280;7273;48.902;9.410;2023-04-19T03:32:20;98467.63;;;9.33;71.34
9187;BME280;7273;48.902;9.410;2023-04-19T03:34:45;98462.75;;;9.30;71.29
9187;BME280;7273;48.902;9.410;2023-04-19T03:37:10;98462.75;;;9.30;71.75
9187;BME280;7273;48.902;9.410;2023-04-19T03:39:36;98468.09;;;9.25;71.89
9187;BME280;7273;48.902;9.410;2023-04-19T03:42:01;98470.53;;;9.27;71.85
9187;BME280;7273;48.902;9.410;2023-04-19T03:44:27;98459.97;;;9.20;71.78
9187;BME280;7273;48.902;9.410;2023-04-19T03:46:52;98457.84;;;9.22;71.68
9187;BME280;7273;48.902;9.410;2023-04-19T03:49:17;98451.88;;;9.20;71.68
9187;BME280;7273;48.902;9.410;2023-04-19T03:51:43;98458.34;;;9.19;71.68
9187;BME280;7273;48.902;9.410;2023-04-19T03:54:08;98458.63;;;9.18;71.54
9187;BME280;7273;48.902;9.410;2023-04-19T03:56:34;98452.88;;;9.09;71.94
9187;BME280;7273;48.902;9.410;2023-04-19T03:58:59;98454.47;;;9.10;71.97
9187;BME280;7273;48.902;9.410;2023-04-19T04:01:25;98456.84;;;9.02;72.16
9187;BME280;7273;48.902;9.410;2023-04-19T04:03:51;98451.13;;;8.93;72.08
9187;BME280;7273;48.902;9.410;2023-04-19T04:06:16;98446.19;;;8.85;72.34
9187;BME280;7273;48.902;9.410;2023-04-19T04:08:42;98445.69;;;8.88;72.33
9187;BME280;7273;48.902;9.410;2023-04-19T04:11:07;98444.28;;;8.86;72.31
9187;BME280;7273;48.902;9.410;2023-04-19T04:13:33;98441.53;;;8.81;72.01
9187;BME280;7273;48.902;9.410;2023-04-19T04:15:58;98444.19;;;8.76;72.11
9187;BME280;7273;48.902;9.410;2023-04-19T04:18:24;98446.88;;;8.76;72.66
9187;BME280;7273;48.902;9.410;2023-04-19T04:20:51;98445.72;;;8.67;72.49
9187;BME280;7273;48.902;9.410;2023-04-19T04:23:16;98443.84;;;8.67;72.66
9187;BME280;7273;48.902;9.410;2023-04-19T04:25:42;98453.56;;;8.68;72.52
9187;BME280;7273;48.902;9.410;2023-04-19T04:28:07;98445.41;;;8.63;72.23
9187;BME280;7273;48.902;9.410;2023-04-19T04:30:32;98445.16;;;8.65;72.20
9187;BME280;7273;48.902;9.410;2023-04-19T04:32:58;98445.69;;;8.62;72.55
9187;BME280;7273;48.902;9.410;2023-04-19T04:35:24;98453.41;;;8.53;72.44
9187;BME280;7273;48.902;9.410;2023-04-19T04:37:50;98453.41;;;8.53;72.22
9187;BME280;7273;48.902;9.410;2023-04-19T04:40:18;98458.00;;;8.53;72.51
9187;BME280;7273;48.902;9.410;2023-04-19T04:42:44;98457.44;;;8.51;72.45
9187;BME280;7273;48.902;9.410;2023-04-19T04:45:10;98451.78;;;8.52;72.74
9187;BME280;7273;48.902;9.410;2023-04-19T04:47:36;98457.69;;;8.49;72.38
9187;BME280;7273;48.902;9.410;2023-04-19T04:50:02;98457.44;;;8.51;72.27
9187;BME280;7273;48.902;9.410;2023-04-19T04:52:28;98454.22;;;8.54;72.48
9187;BME280;7273;48.902;9.410;2023-04-19T04:54:54;98452.34;;;8.54;72.92
9187;BME280;7273;48.902;9.410;2023-04-19T04:57:19;98465.00;;;8.54;72.44
9187;BME280;7273;48.902;9.410;2023-04-19T04:59:45;98451.53;;;8.54;73.23
9187;BME280;7273;48.902;9.410;2023-04-19T05:02:12;98459.34;;;8.55;72.46
9187;BME280;7273;48.902;9.410;2023-04-19T05:04:38;98464.75;;;8.55;72.69
9187;BME280;7273;48.902;9.410;2023-04-19T05:07:03;98455.84;;;8.55;72.49
9187;BME280;7273;48.902;9.410;2023-04-19T05:09:29;98460.97;;;8.56;72.75
9187;BME280;7273;48.902;9.410;2023-04-19T05:11:54;98459.66;;;8.59;72.71
9187;BME280;7273;48.902;9.410;2023-04-19T05:14:20;98461.53;;;8.58;72.54
9187;BME280;7273;48.902;9.410;2023-04-19T05:16:45;98449.19;;;8.62;72.17
9187;BME280;7273;48.902;9.410;2023-04-19T05:19:10;98453.75;;;8.62;72.89
9187;BME280;7273;48.902;9.410;2023-04-19T05:21:36;98458.66;;;8.65;73.06
9187;BME280;7273;48.902;9.410;2023-04-19T05:24:01;98457.63;;;8.71;72.72
9187;BME280;7273;48.902;9.410;2023-04-19T05:26:27;98459.06;;;8.78;72.58
9187;BME280;7273;48.902;9.410;2023-04-19T05:28:52;98462.84;;;8.82;72.18
9187;BME280;7273;48.902;9.410;2023-04-19T05:31:17;98466.47;;;8.93;72.31
9187;BME280;7273;48.902;9.410;2023-04-19T05:33:45;98465.78;;;9.07;72.44
9187;BME280;7273;48.902;9.410;2023-04-19T05:36:10;98466.97;;;9.16;72.50
9187;BME280;7273;48.902;9.410;2023-04-19T05:38:36;98471.59;;;9.21;72.28
9187;BME280;7273;48.902;9.410;2023-04-19T05:41:02;98467.06;;;9.31;71.85
9187;BME280;7273;48.902;9.410;2023-04-19T05:43:28;98467.63;;;9.33;72.37
9187;BME280;7273;48.902;9.410;2023-04-19T05:45:53;98467.44;;;9.45;72.11
9187;BME280;7273;48.902;9.410;2023-04-19T05:48:19;98467.94;;;9.79;71.72
9187;BME280;7273;48.902;9.410;2023-04-19T05:50:44;98460.94;;;10.29;71.18
9187;BME280;7273;48.902;9.410;2023-04-19T05:53:09;98465.16;;;11.02;70.09
9187;BME280;7273;48.902;9.410;2023-04-19T05:55:35;98464.09;;;11.73;69.41
9187;BME280;7273;48.902;9.410;2023-04-19T05:58:00;98459.94;;;12.01;69.85
9187;BME280;7273;48.902;9.410;2023-04-19T06:00:26;98463.53;;;11.86;70.66
9187;BME280;7273;48.902;9.410;2023-04-19T06:02:52;98459.75;;;11.72;71.35
9187;BME280;7273;48.902;9.410;2023-04-19T06:05:17;98463.81;;;11.70;71.06
9187;BME280;7273;48.902;9.410;2023-04-19T06:07:43;98464.09;;;11.63;70.57
9187;BME280;7273;48.902;9.410;2023-04-19T06:10:08;98468.94;;;11.56;70.54
9187;BME280;7273;48.902;9.410;2023-04-19T06:12:34;98465.41;;;11.51;70.40
9187;BME280;7273;48.902;9.410;2023-04-19T06:14:59;98464.34;;;11.42;70.21
9187;BME280;7273;48.902;9.410;2023-04-19T06:17:25;98477.88;;;11.27;70.36
9187;BME280;7273;48.902;9.410;2023-04-19T06:19:51;98476.53;;;11.14;70.34
9187;BME280;7273;48.902;9.410;2023-04-19T06:22:16;98474.38;;;11.01;70.35
9187;BME280;7273;48.902;9.410;2023-04-19T06:24:45;98471.09;;;10.99;70.19
9187;BME280;7273;48.902;9.410;2023-04-19T06:27:10;98478.41;;;10.94;70.24
9187;BME280;7273;48.902;9.410;2023-04-19T06:29:36;98472.97;;;10.78;70.38
9187;BME280;7273;48.902;9.410;2023-04-19T06:32:01;98475.69;;;10.78;70.42
9187;BME280;7273;48.902;9.410;2023-04-19T06:34:27;98481.63;;;10.80;70.63
9187;BME280;7273;48.902;9.410;2023-04-19T06:36:52;98480.25;;;10.68;70.56
9187;BME280;7273;48.902;9.410;2023-04-19T06:39:18;98480.50;;;10.66;70.40
9187;BME280;7273;48.902;9.410;2023-04-19T06:41:43;98476.97;;;10.61;70.46
9187;BME280;7273;48.902;9.410;2023-04-19T06:44:08;98479.69;;;10.66;70.52
9187;BME280;7273;48.902;9.410;2023-04-19T06:46:34;98474.03;;;10.67;70.49
9187;BME280;7273;48.902;9.410;2023-04-19T06:48:59;98479.97;;;10.69;70.12
9187;BME280;7273;48.902;9.410;2023-04-19T06:51:25;98475.38;;;10.70;70.27
9187;BME280;7273;48.902;9.410;2023-04-19T06:53:50;98477.53;;;10.68;70.10
9187;BME280;7273;48.902;9.410;2023-04-19T06:56:15;98474.31;;;10.76;69.99
9187;BME280;7273;48.902;9.410;2023-04-19T06:58:41;98472.16;;;10.73;69.92
9187;BME280;7273;48.902;9.410;2023-04-19T07:01:06;98475.69;;;10.88;69.82
9187;BME280;7273;48.902;9.410;2023-04-19T07:03:32;98477.09;;;11.06;69.41
9187;BME280;7273;48.902;9.410;2023-04-19T07:05:58;98465.16;;;11.02;69.73
9187;BME280;7273;48.902;9.410;2023-04-19T07:08:24;98469.22;;;11.20;69.45
9187;BME280;7273;48.902;9.410;2023-04-19T07:10:49;98468.41;;;11.34;69.51
9187;BME280;7273;48.902;9.410;2023-04-19T07:13:15;98460.81;;;11.41;68.86
9187;BME280;7273;48.902;9.410;2023-04-19T07:15:41;98457.06;;;11.47;68.77
9187;BME280;7273;48.902;9.410;2023-04-19T07:18:07;98465.41;;;11.51;68.62
9187;BME280;7273;48.902;9.410;2023-04-19T07:20:34;98464.63;;;11.65;68.66
9187;BME280;7273;48.902;9.410;2023-04-19T07:23:00;98452.69;;;11.61;68.69
9187;BME280;7273;48.902;9.410;2023-04-19T07:25:25;98456.75;;;11.59;68.64
9187;BME280;7273;48.902;9.410;2023-04-19T07:27:52;98445.94;;;11.49;68.53
9187;BME280;7273;48.902;9.410;2023-04-19T07:30:18;98454.88;;;11.44;68.41
9187;BME280;7273;48.902;9.410;2023-04-19T07:32:43;98455.69;;;11.50;68.42
9187;BME280;7273;48.902;9.410;2023-04-19T07:35:10;98451.09;;;11.40;68.33
9187;BME280;7273;48.902;9.410;2023-04-19T07:37:35;98454.59;;;11.56;68.46
9187;BME280;7273;48.902;9.410;2023-04-19T07:40:01;98449.44;;;11.54;68.32
9187;BME280;7273;48.902;9.410;2023-04-19T07:42:28;98449.16;;;11.76;67.82
9187;BME280;7273;48.902;9.410;2023-04-19T07:44:55;98447.75;;;11.98;68.00
9187;BME280;7273;48.902;9.410;2023-04-19T07:47:20;98451.22;;;12.19;67.47
9187;BME280;7273;48.902;9.410;2023-04-19T07:49:46;98444.91;;;12.39;67.19
9187;BME280;7273;48.902;9.410;2023-04-19T07:52:11;98438.28;;;12.60;66.87
9187;BME280;7273;48.902;9.410;2023-04-19T07:54:37;98436.63;;;12.59;66.71
9187;BME280;7273;48.902;9.410;2023-04-19T07:57:03;98440.16;;;12.59;66.65
9187;BME280;7273;48.902;9.410;2023-04-19T07:59:29;98437.69;;;12.63;66.48
9187;BME280;7273;48.902;9.410;2023-04-19T08:01:57;98439.13;;;12.50;66.53
9187;BME280;7273;48.902;9.410;2023-04-19T08:04:23;98435.91;;;12.43;66.91
9187;BME280;7273;48.902;9.410;2023-04-19T08:06:48;98437.53;;;12.44;66.98
9187;BME280;7273;48.902;9.410;2023-04-19T08:09:14;98436.81;;;12.29;66.75
9187;BME280;7273;48.902;9.410;2023-04-19T08:11:39;98440.06;;;12.26;67.10
9187;BME280;7273;48.902;9.410;2023-04-19T08:14:05;98440.38;;;12.19;66.85
9187;BME280;7273;48.902;9.410;2023-04-19T08:16:30;98432.56;;;12.07;67.09
9187;BME280;7273;48.902;9.410;2023-04-19T08:18:55;98430.94;;;12.01;67.12
9187;BME280;7273;48.902;9.410;2023-04-19T08:21:21;98428.22;;;12.01;67.32
9187;BME280;7273;48.902;9.410;2023-04-19T08:23:46;98425.28;;;11.93;67.38
9187;BME280;7273;48.902;9.410;2023-04-19T08:26:12;98432.34;;;11.84;67.26
9187;BME280;7273;48.902;9.410;2023-04-19T08:28:37;98431.53;;;11.83;67.51
9187;BME280;7273;48.902;9.410;2023-04-19T08:31:06;98424.16;;;11.99;67.08
9187;BME280;7273;48.902;9.410;2023-04-19T08:33:32;98433.91;;;12.00;67.15
9187;BME280;7273;48.902;9.410;2023-04-19T08:35:57;98427.88;;;12.18;67.36
9187;BME280;7273;48.902;9.410;2023-04-19T08:38:23;98432.97;;;12.35;67.15
9187;BME280;7273;48.902;9.410;2023-04-19T08:40:52;98426.94;;;12.43;67.34
9187;BME280;7273;48.902;9.410;2023-04-19T08:43:19;98421.19;;;12.54;67.58
9187;BME280;7273;48.902;9.410;2023-04-19T08:45:49;98420.88;;;12.61;67.55
9187;BME280;7273;48.902;9.410;2023-04-19T08:48:15;98417.28;;;12.70;67.17
9187;BME280;7273;48.902;9.410;2023-04-19T08:50:42;98421.06;;;12.74;67.35
9187;BME280;7273;48.902;9.410;2023-04-19T08:53:09;98415.06;;;12.82;67.30
9187;BME280;7273;48.902;9.410;2023-04-19T08:55:36;98418.81;;;12.91;67.20
9187;BME280;7273;48.902;9.410;2023-04-19T08:58:03;98422.28;;;12.97;67.00
9187;BME280;7273;48.902;9.410;2023-04-19T09:00:34;98413.88;;;12.93;67.42
9187;BME280;7273;48.902;9.410;2023-04-19T09:03:02;98418.44;;;13.03;67.08
9187;BME280;7273;48.902;9.410;2023-04-19T09:05:27;98410.34;;;12.98;67.02
9187;BME280;7273;48.902;9.410;2023-04-19T09:07:53;98407.59;;;13.03;67.47
9187;BME280;7273;48.902;9.410;2023-04-19T09:10:19;98407.25;;;13.09;67.37
9187;BME280;7273;48.902;9.410;2023-04-19T09:13:02;98403.47;;;13.10;67.47
9187;BME280;7273;48.902;9.410;2023-04-19T09:15:36;98405.69;;;12.98;67.40
9187;BME280;7273;48.902;9.410;2023-04-19T09:18:04;98403.06;;;12.88;67.58
9187;BME280;7273;48.902;9.410;2023-04-19T09:20:49;98404.91;;;12.98;66.35
9187;BME280;7273;48.902;9.410;2023-04-19T09:23:17;98408.81;;;12.82;67.30
9187;BME280;7273;48.902;9.410;2023-04-19T09:26:00;98399.25;;;12.89;67.22
9187;BME280;7273;48.902;9.410;2023-04-19T09:28:27;98395.69;;;12.94;67.11
9187;BME280;7273;48.902;9.410;2023-04-19T09:30:54;98397.25;;;13.00;67.50
9187;BME280;7273;48.902;9.410;2023-04-19T09:33:37;98394.25;;;13.06;67.20
9187;BME280;7273;48.902;9.410;2023-04-19T09:36:06;98387.22;;;13.00;67.27
9187;BME280;7273;48.902;9.410;2023-04-19T09:38:48;98388.03;;;13.06;66.88
9187;BME280;7273;48.902;9.410;2023-04-19T09:41:14;98385.63;;;12.99;67.48
9187;BME280;7273;48.902;9.410;2023-04-19T09:43:41;98379.94;;;13.01;67.36
9187;BME280;7273;48.902;9.410;2023-04-19T09:46:07;98384.00;;;12.93;67.23
9187;BME280;7273;48.902;9.410;2023-04-19T09:48:32;98379.69;;;12.92;67.64
9187;BME280;7273;48.902;9.410;2023-04-19T09:50:59;98379.44;;;12.89;67.27
9187;BME280;7273;48.902;9.410;2023-04-19T09:53:27;98371.91;;;12.81;67.14
9187;BME280;7273;48.902;9.410;2023-04-19T09:55:52;98373.22;;;12.83;67.14
9187;BME280;7273;48.902;9.410;2023-04-19T09:58:19;98369.19;;;12.81;67.31
9187;BME280;7273;48.902;9.410;2023-04-19T10:00:46;98365.69;;;12.75;67.51
9187;BME280;7273;48.902;9.410;2023-04-19T10:03:13;98364.38;;;12.73;67.46
9187;BME280;7273;48.902;9.410;2023-04-19T10:05:40;98366.09;;;12.59;67.60
9187;BME280;7273;48.902;9.410;2023-04-19T10:08:07;98357.69;;;12.60;67.52
9187;BME280;7273;48.902;9.410;2023-04-19T10:10:33;98359.00;;;12.63;67.29
9187;BME280;7273;48.902;9.410;2023-04-19T10:13:00;98366.06;;;12.64;67.65
9187;BME280;7273;48.902;9.410;2023-04-19T10:15:26;98360.91;;;12.62;67.55
9187;BME280;7273;48.902;9.410;2023-04-19T10:17:53;98356.34;;;12.58;68.02
9187;BME280;7273;48.902;9.410;2023-04-19T10:20:23;98359.00;;;12.63;67.84
9187;BME280;7273;48.902;9.410;2023-04-19T10:22:49;98348.69;;;12.65;67.96
9187;BME280;7273;48.902;9.410;2023-04-19T10:25:15;98350.84;;;12.68;67.78
9187;BME280;7273;48.902;9.410;2023-04-19T10:27:42;98345.09;;;12.74;67.60
9187;BME280;7273;48.902;9.410;2023-04-19T10:32:44;98348.81;;;12.83;67.63
9187;BME280;7273;48.902;9.410;2023-04-19T10:35:17;98341.81;;;12.77;67.50
9187;BME280;7273;48.902;9.410;2023-04-19T10:41:03;98342.78;;;12.58;67.69
9187;BME280;7273;48.902;9.410;2023-04-19T10:43:30;98335.72;;;12.57;67.67
9187;BME280;7273;48.902;9.410;2023-04-19T10:48:52;98329.53;;;12.51;67.44
9187;BME280;7273;48.902;9.410;2023-04-19T10:56:20;98330.44;;;12.37;68.08
9187;BME280;7273;48.902;9.410;2023-04-19T11:01:58;98322.94;;;12.24;68.19
9187;BME280;7273;48.902;9.410;2023-04-19T11:06:57;98326.50;;;12.14;68.20
9187;BME280;7273;48.902;9.410;2023-04-19T11:12:03;98318.75;;;11.92;68.67
9187;BME280;7273;48.902;9.410;2023-04-19T11:14:52;98316.06;;;11.87;69.15
9187;BME280;7273;48.902;9.410;2023-04-19T11:17:23;98319.34;;;11.84;69.50
9187;BME280;7273;48.902;9.410;2023-04-19T11:19:55;98312.84;;;11.80;69.73
9187;BME280;7273;48.902;9.410;2023-04-19T11:22:35;98310.69;;;11.77;69.41
9187;BME280;7273;48.902;9.410;2023-04-19T11:25:07;98301.00;;;11.66;69.93
9187;BME280;7273;48.902;9.410;2023-04-19T11:27:33;98303.97;;;11.70;69.59
9187;BME280;7273;48.902;9.410;2023-04-19T11:30:09;98296.91;;;11.59;70.52
9187;BME280;7273;48.902;9.410;2023-04-19T11:32:36;98300.19;;;11.56;70.44
9187;BME280;7273;48.902;9.410;2023-04-19T11:35:08;98293.41;;;11.58;70.04
9187;BME280;7273;48.902;9.410;2023-04-19T11:37:34;98290.75;;;11.43;70.45
9187;BME280;7273;48.902;9.410;2023-04-19T11:40:00;98293.19;;;11.45;70.31
9187;BME280;7273;48.902;9.410;2023-04-19T11:42:26;98297.28;;;11.42;70.23
9187;BME280;7273;48.902;9.410;2023-04-19T11:44:51;98289.69;;;11.39;70.19
9187;BME280;7273;48.902;9.410;2023-04-19T11:47:17;98285.09;;;11.35;70.45
9187;BME280;7273;48.902;9.410;2023-04-19T11:49:47;98286.75;;;11.31;70.38
9187;BME280;7273;48.902;9.410;2023-04-19T11:52:19;98281.09;;;11.22;70.65
9187;BME280;7273;48.902;9.410;2023-04-19T11:54:44;98283.53;;;11.14;70.82
9187;BME280;7273;48.902;9.410;2023-04-19T11:57:11;98285.41;;;11.13;70.67
9187;BME280;7273;48.902;9.410;2023-04-19T11:59:36;98277.06;;;11.10;70.98
9187;BME280;7273;48.902;9.410;2023-04-19T12:04:29;98278.97;;;11.04;70.99
9187;BME280;7273;48.902;9.410;2023-04-19T12:06:57;98284.38;;;11.04;70.92
9187;BME280;7273;48.902;9.410;2023-04-19T12:09:23;98281.69;;;10.99;70.99
9187;BME280;7273;48.902;9.410;2023-04-19T12:11:49;98285.72;;;10.97;71.04
9187;BME280;7273;48.902;9.410;2023-04-19T12:14:16;98285.47;;;10.93;71.02
9187;BME280;7273;48.902;9.410;2023-04-19T12:17:11;98288.19;;;10.93;71.05
9187;BME280;7273;48.902;9.410;2023-04-19T12:19:44;98287.38;;;10.88;71.00
9187;BME280;7273;48.902;9.410;2023-04-19T12:22:13;98290.34;;;10.86;70.81
9187;BME280;7273;48.902;9.410;2023-04-19T12:24:39;98291.44;;;10.85;70.59
9187;BME280;7273;48.902;9.410;2023-04-19T12:27:05;98283.88;;;10.72;70.97
9187;BME280;7273;48.902;9.410;2023-04-19T12:29:31;98281.44;;;10.70;70.59
9187;BME280;7273;48.902;9.410;2023-04-19T12:31:58;98284.41;;;10.69;70.48
9187;BME280;7273;48.902;9.410;2023-04-19T12:34:23;98279.53;;;10.61;70.56
9187;BME280;7273;48.902;9.410;2023-04-19T12:36:49;98276.06;;;10.60;70.41
9187;BME280;7273;48.902;9.410;2023-04-19T12:39:14;98277.38;;;10.53;70.57
9187;BME280;7273;48.902;9.410;2023-04-19T12:41:40;98275.78;;;10.52;70.67
9187;BME280;7273;48.902;9.410;2023-04-19T12:44:05;98269.81;;;10.50;70.51
9187;BME280;7273;48.902;9.410;2023-04-19T12:46:31;98265.50;;;10.54;70.27
9187;BME280;7273;48.902;9.410;2023-04-19T12:48:56;98259.56;;;10.47;71.20
9187;BME280;7273;48.902;9.410;2023-04-19T12:51:21;98262.53;;;10.50;70.34
9187;BME280;7273;48.902;9.410;2023-04-19T12:53:48;98264.13;;;10.56;70.47
9187;BME280;7273;48.902;9.410;2023-04-19T12:56:13;98264.41;;;10.55;70.05
9187;BME280;7273;48.902;9.410;2023-04-19T12:58:40;98253.59;;;10.60;70.06
9187;BME280;7273;48.902;9.410;2023-04-19T13:01:06;98257.13;;;10.65;69.96
9187;BME280;7273;48.902;9.410;2023-04-19T13:03:31;98254.13;;;10.67;69.75
9187;BME280;7273;48.902;9.410;2023-04-19T13:06:00;98248.19;;;10.65;69.71
9187;BME280;7273;48.902;9.410;2023-04-19T13:08:25;98243.84;;;10.59;69.59
9187;BME280;7273;48.902;9.410;2023-04-19T13:10:51;98241.69;;;10.56;69.63
9187;BME280;7273;48.902;9.410;2023-04-19T13:13:16;98237.09;;;10.61;69.44
9187;BME280;7273;48.902;9.410;2023-04-19T13:15:42;98236.81;;;10.53;69.70
9187;BME280;7273;48.902;9.410;2023-04-19T13:18:08;98235.50;;;10.50;69.43
9187;BME280;7273;48.902;9.410;2023-04-19T13:20:33;98233.34;;;10.47;69.57
9187;BME280;7273;48.902;9.410;2023-04-19T13:22:58;98226.56;;;10.45;69.46
9187;BME280;7273;48.902;9.410;2023-04-19T13:25:24;98217.63;;;10.44;69.44
9187;BME280;7273;48.902;9.410;2023-04-19T13:27:49;98224.94;;;10.49;69.63
9187;BME280;7273;48.902;9.410;2023-04-19T13:30:15;98222.25;;;10.44;69.56
9187;BME280;7273;48.902;9.410;2023-04-19T13:32:41;98212.50;;;10.48;69.36
9187;BME280;7273;48.902;9.410;2023-04-19T13:35:07;98201.13;;;10.51;69.29
9187;BME280;7273;48.902;9.410;2023-04-19T13:37:33;98211.16;;;10.50;69.33
9187;BME280;7273;48.902;9.410;2023-04-19T13:39:58;98196.25;;;10.58;69.13
9187;BME280;7273;48.902;9.410;2023-04-19T13:42:24;98189.50;;;10.60;69.08
9187;BME280;7273;48.902;9.410;2023-04-19T13:44:49;98189.44;;;10.75;68.94
9187;BME280;7273;48.902;9.410;2023-04-19T13:47:15;98193.50;;;10.83;68.77